Airfield :







YOU CAN JOIN US ON...

 
LOGIN :

Register | Disclaimer

   EN    FR    IT 

 









Legend :    VFR   Marginal VFR   IFR   Intensive IFR   Very Intensive IFR
Visi :
Ceiling :
>= 8 km
>= 3000ft
5 to 8 km
1000 to 3000 ft
1500m to 5 km
500 to 1000 ft
800 to 1500m
200 to 500 ft
< 800m
< 200 ft
Symbols :   Thunderstorms  Fog  Heavy snow  Heavy precipitations  Wind > 20 kt






- Airport Elevation : 68 ft
- IATA code : YFC


CYFC - Fredericton

CURRENT METAR :
  • 092025Z AUTO 11002KT 1/2SM R09/4000VP6000FT/ -RA FG BKN006 BKN012 OVC023 03/03 A3010 RMK SLP194

EXPIRED METARs :
  • 092017Z AUTO 12003KT 2 1/4SM -RA BR SCT006 BKN010 OVC023 04/04 A3010 RMK VIS VRB 1 1/4-3 SLP195
  • 091958Z AUTO 13003KT 5SM -RA BR OVC006 04/04 A3011 RMK SLP197
  • 091943Z AUTO 12004KT 6SM BR OVC006 04/04 A3011 RMK SLP199
  • 091935Z AUTO 13004KT 5SM BR OVC008 04/04 A3012 RMK SLP200
  • 091900Z AUTO 11005KT 9SM OVC012 03/03 A3012 RMK SLP203
  • 091800Z AUTO 07002KT 9SM OVC012 03/03 A3015 RMK SLP211

TAF AMD TAF CYFC
Valid from the 09 at 20:00 until the 10 at 06:00 UTC


092028Z 0920/1006 12005KT 3/4SM -RA BR OVC004
TEMPO 0920/1002 6SM -RA BR SCT004 OVC015
BECMG 0922/0924 18015KT
FM100200 17015G25KT 6SM -RA BR OVC015
TEMPO 1002/1006 2SM -RA BR OVC007 RMK FCST BASED ON AUTO OBS. NXT FCST BY 100000Z



MET'MAP, your aeronautical weather chart ! - Copyright ORBIFLY December 2007 - Disclaimer

ORBIFLY MET'MAP TEAM :

Programming & Development : Alexandra Zaïnal
Concept & original design : Baudouin d'Aumeries
Assistance for programming : Marc-Olivier Méhu
Technical & hardware support : Manuel Goepfert

Contact : metmap@orbifly.com




SOURCES & CREDITS :

   NOAA